KPMD/PMD METAR and TAF weather

Enter ICAO airport designator
Station Type Date Time Source
KPMD METAR 2019/04/25 15:53 UTC NOAA

KPMD 251553Z 22006KT 10SM CLR 26/07 A3000 RMK AO2 SLP132 T02610067


Station Type Date Time Source
KPMD Decoded METAR 2019/04/25 15:53 UTC NOAA

PALMDALE PROD FLIGHT PLANT, CA, United States (KPMD) 34-38N 118-05W 780M
Apr 25, 2019 - 11:53 AM EDT / 2019.04.25 1553 UTC
Wind: from the SW (220 degrees) at 7 MPH (6 KT):0
Visibility: 10 mile(s):0
Sky conditions: clear
Temperature: 79.0 F (26.1 C)
Dew Point: 44.1 F (6.7 C)
Relative Humidity: 29%
Pressure (altimeter): 30 in. Hg (1015 hPa)
ob: KPMD 251553Z 22006KT 10SM CLR 26/07 A3000 RMK AO2 SLP132 T02610067
cycle: 16

Station Type Date Time Source
KPMD TAF 2019/04/25 12:24 UTC NOAA

TAF KPMD 251122Z 2512/2612 22008KT P6SM SKC
FM251400 VRB03KT P6SM SKC
FM251900 24012KT P6SM SKC
FM252200 24017G25KT P6SM SKC
FM260300 24010KT P6SM SKC

Example: see airport list